sensor_id;sensor_type;location;lat;lon;timestamp;pressure;altitude;pressure_sealevel;temperature;humidity
59873;BME280;50750;51.636;4.948;2023-01-29T00:01:37;103210.41;;;8.80;59.51
59873;BME280;50750;51.636;4.948;2023-01-29T00:04:03;103216.35;;;8.81;59.43
59873;BME280;50750;51.636;4.948;2023-01-29T00:06:29;103219.33;;;8.80;59.59
59873;BME280;50750;51.636;4.948;2023-01-29T00:08:56;103213.55;;;8.80;59.53
59873;BME280;50750;51.636;4.948;2023-01-29T00:11:21;103209.19;;;8.80;59.51
59873;BME280;50750;51.636;4.948;2023-01-29T00:13:50;103207.97;;;8.80;59.50
59873;BME280;50750;51.636;4.948;2023-01-29T00:16:16;103204.99;;;8.79;59.50
59873;BME280;50750;51.636;4.948;2023-01-29T00:18:42;103201.85;;;8.79;59.61
59873;BME280;50750;51.636;4.948;2023-01-29T00:21:10;103198.02;;;8.79;59.58
59873;BME280;50750;51.636;4.948;2023-01-29T00:23:36;103200.80;;;8.79;59.45
59873;BME280;50750;51.636;4.948;2023-01-29T00:26:02;103205.52;;;8.79;59.72
59873;BME280;50750;51.636;4.948;2023-01-29T00:28:28;103194.68;;;8.79;59.61
59873;BME280;50750;51.636;4.948;2023-01-29T00:30:54;103189.08;;;8.78;59.49
59873;BME280;50750;51.636;4.948;2023-01-29T00:33:20;103188.37;;;8.78;59.53
59873;BME280;50750;51.636;4.948;2023-01-29T00:35:46;103179.80;;;8.78;59.64
59873;BME280;50750;51.636;4.948;2023-01-29T00:38:12;103180.85;;;8.78;59.52
59873;BME280;50750;51.636;4.948;2023-01-29T00:40:38;103180.33;;;8.77;59.56
59873;BME280;50750;51.636;4.948;2023-01-29T00:43:23;103171.06;;;8.77;59.44
59873;BME280;50750;51.636;4.948;2023-01-29T00:46:09;103167.58;;;8.77;59.40
59873;BME280;50750;51.636;4.948;2023-01-29T00:48:35;103161.98;;;8.77;59.48
59873;BME280;50750;51.636;4.948;2023-01-29T00:51:02;103163.73;;;8.77;59.35
59873;BME280;50750;51.636;4.948;2023-01-29T00:53:28;103161.45;;;8.77;59.51
59873;BME280;50750;51.636;4.948;2023-01-29T00:55:54;103163.38;;;8.77;59.42
59873;BME280;50750;51.636;4.948;2023-01-29T00:58:20;103161.28;;;8.76;59.39
59873;BME280;50750;51.636;4.948;2023-01-29T01:00:47;103167.39;;;8.77;59.42
59873;BME280;50750;51.636;4.948;2023-01-29T01:03:15;103168.80;;;8.77;59.41
59873;BME280;50750;51.636;4.948;2023-01-29T01:05:42;103167.92;;;8.76;59.34
59873;BME280;50750;51.636;4.948;2023-01-29T01:08:09;103168.80;;;8.77;59.30
59873;BME280;50750;51.636;4.948;2023-01-29T01:10:59;103160.41;;;8.77;59.42
59873;BME280;50750;51.636;4.948;2023-01-29T01:13:25;103151.33;;;8.76;59.34
59873;BME280;50750;51.636;4.948;2023-01-29T01:15:51;103154.98;;;8.76;59.26
59873;BME280;50750;51.636;4.948;2023-01-29T01:18:16;103159.70;;;8.75;59.42
59873;BME280;50750;51.636;4.948;2023-01-29T01:20:45;103158.83;;;8.76;59.34
59873;BME280;50750;51.636;4.948;2023-01-29T01:23:19;103148.18;;;8.76;59.32
59873;BME280;50750;51.636;4.948;2023-01-29T01:25:44;103147.66;;;8.76;59.43
59873;BME280;50750;51.636;4.948;2023-01-29T01:28:11;103144.15;;;8.76;59.41
59873;BME280;50750;51.636;4.948;2023-01-29T01:30:37;103141.35;;;8.76;59.29
59873;BME280;50750;51.636;4.948;2023-01-29T01:33:03;103148.85;;;8.75;59.33
59873;BME280;50750;51.636;4.948;2023-01-29T01:35:29;103151.13;;;8.75;59.35
59873;BME280;50750;51.636;4.948;2023-01-29T01:37:55;103153.21;;;8.75;59.17
59873;BME280;50750;51.636;4.948;2023-01-29T01:40:23;103157.41;;;8.75;59.30
59873;BME280;50750;51.636;4.948;2023-01-29T01:42:51;103153.56;;;8.75;59.24
59873;BME280;50750;51.636;4.948;2023-01-29T01:45:32;103154.27;;;8.75;59.29
59873;BME280;50750;51.636;4.948;2023-01-29T01:50:37;103157.23;;;8.74;59.25
59873;BME280;50750;51.636;4.948;2023-01-29T01:53:11;103159.15;;;8.74;59.33
59873;BME280;50750;51.636;4.948;2023-01-29T01:55:52;103165.61;;;8.73;59.42
59873;BME280;50750;51.636;4.948;2023-01-29T01:58:41;103165.23;;;8.73;59.29
59873;BME280;50750;51.636;4.948;2023-01-29T02:01:08;103166.80;;;8.72;59.30
59873;BME280;50750;51.636;4.948;2023-01-29T02:03:44;103172.73;;;8.72;59.32
59873;BME280;50750;51.636;4.948;2023-01-29T02:06:30;103173.09;;;8.72;59.30
59873;BME280;50750;51.636;4.948;2023-01-29T02:09:19;103174.48;;;8.72;59.28
59873;BME280;50750;51.636;4.948;2023-01-29T02:11:58;103176.40;;;8.71;59.28
59873;BME280;50750;51.636;4.948;2023-01-29T02:14:24;103176.05;;;8.72;59.25
59873;BME280;50750;51.636;4.948;2023-01-29T02:16:50;103181.46;;;8.72;59.29
59873;BME280;50750;51.636;4.948;2023-01-29T02:19:35;103182.52;;;8.71;59.45
59873;BME280;50750;51.636;4.948;2023-01-29T02:31:15;103164.67;;;8.70;59.38
59873;BME280;50750;51.636;4.948;2023-01-29T02:33:34;103171.66;;;8.70;59.36
59873;BME280;50750;51.636;4.948;2023-01-29T02:39:18;103167.98;;;8.70;59.49
59873;BME280;50750;51.636;4.948;2023-01-29T02:41:45;103168.16;;;8.70;59.52
59873;BME280;50750;51.636;4.948;2023-01-29T02:44:33;103170.09;;;8.70;59.47
59873;BME280;50750;51.636;4.948;2023-01-29T02:49:47;103153.31;;;8.69;59.46
59873;BME280;50750;51.636;4.948;2023-01-29T02:52:25;103159.77;;;8.70;59.37
59873;BME280;50750;51.636;4.948;2023-01-29T02:55:00;103158.38;;;8.69;59.43
59873;BME280;50750;51.636;4.948;2023-01-29T02:57:33;103150.52;;;8.69;59.41
59873;BME280;50750;51.636;4.948;2023-01-29T03:02:47;103152.95;;;8.69;59.24
59873;BME280;50750;51.636;4.948;2023-01-29T03:05:23;103151.39;;;8.69;59.19
59873;BME280;50750;51.636;4.948;2023-01-29T03:07:56;103146.13;;;8.69;59.11
59873;BME280;50750;51.636;4.948;2023-01-29T03:10:30;103147.72;;;8.69;59.24
59873;BME280;50750;51.636;4.948;2023-01-29T03:13:06;103147.88;;;8.68;59.10
59873;BME280;50750;51.636;4.948;2023-01-29T03:15:38;103141.59;;;8.68;59.18
59873;BME280;50750;51.636;4.948;2023-01-29T03:18:13;103140.17;;;8.68;59.12
59873;BME280;50750;51.636;4.948;2023-01-29T03:20:48;103139.83;;;8.68;59.19
59873;BME280;50750;51.636;4.948;2023-01-29T03:23:22;103139.65;;;8.68;59.17
59873;BME280;50750;51.636;4.948;2023-01-29T03:25:53;103136.15;;;8.67;59.30
59873;BME280;50750;51.636;4.948;2023-01-29T03:28:43;103133.36;;;8.67;59.27
59873;BME280;50750;51.636;4.948;2023-01-29T03:31:31;103140.52;;;8.67;59.26
59873;BME280;50750;51.636;4.948;2023-01-29T03:34:20;103142.27;;;8.67;59.37
59873;BME280;50750;51.636;4.948;2023-01-29T03:36:56;103144.36;;;8.66;59.33
59873;BME280;50750;51.636;4.948;2023-01-29T03:39:26;103144.19;;;8.66;59.26
59873;BME280;50750;51.636;4.948;2023-01-29T03:42:15;103138.25;;;8.66;59.35
59873;BME280;50750;51.636;4.948;2023-01-29T03:50:40;103125.11;;;8.65;59.39
59873;BME280;50750;51.636;4.948;2023-01-29T03:53:14;103130.17;;;8.63;59.45
59873;BME280;50750;51.636;4.948;2023-01-29T03:56:05;103131.05;;;8.64;59.40
59873;BME280;50750;51.636;4.948;2023-01-29T03:58:38;103126.15;;;8.62;59.51
59873;BME280;50750;51.636;4.948;2023-01-29T04:01:15;103129.65;;;8.63;59.48
59873;BME280;50750;51.636;4.948;2023-01-29T04:03:49;103122.66;;;8.63;59.48
59873;BME280;50750;51.636;4.948;2023-01-29T04:06:21;103117.23;;;8.63;59.40
59873;BME280;50750;51.636;4.948;2023-01-29T04:11:35;103108.16;;;8.62;59.60
59873;BME280;50750;51.636;4.948;2023-01-29T04:14:03;103111.31;;;8.62;59.54
59873;BME280;50750;51.636;4.948;2023-01-29T04:16:37;103113.91;;;8.62;59.48
59873;BME280;50750;51.636;4.948;2023-01-29T04:19:05;103114.27;;;8.62;59.54
59873;BME280;50750;51.636;4.948;2023-01-29T04:21:33;103119.69;;;8.62;59.51
59873;BME280;50750;51.636;4.948;2023-01-29T04:24:02;103122.83;;;8.62;59.56
59873;BME280;50750;51.636;4.948;2023-01-29T04:26:59;103116.17;;;8.62;59.49
59873;BME280;50750;51.636;4.948;2023-01-29T04:35:13;103085.77;;;8.61;59.33
59873;BME280;50750;51.636;4.948;2023-01-29T04:37:55;103070.59;;;8.61;59.31
59873;BME280;50750;51.636;4.948;2023-01-29T04:46:26;103058.89;;;8.60;59.22
59873;BME280;50750;51.636;4.948;2023-01-29T04:54:14;103052.59;;;8.60;59.12
59873;BME280;50750;51.636;4.948;2023-01-29T04:57:10;103055.55;;;8.60;59.23
59873;BME280;50750;51.636;4.948;2023-01-29T04:59:41;103062.19;;;8.60;59.39
59873;BME280;50750;51.636;4.948;2023-01-29T05:02:10;103057.99;;;8.59;59.26
59873;BME280;50750;51.636;4.948;2023-01-29T05:04:39;103053.63;;;8.59;59.26
59873;BME280;50750;51.636;4.948;2023-01-29T05:07:09;103054.32;;;8.59;59.23
59873;BME280;50750;51.636;4.948;2023-01-29T05:09:37;103053.98;;;8.60;59.16
59873;BME280;50750;51.636;4.948;2023-01-29T05:12:09;103051.19;;;8.60;59.37
59873;BME280;50750;51.636;4.948;2023-01-29T05:14:38;103048.73;;;8.60;59.24
59873;BME280;50750;51.636;4.948;2023-01-29T05:17:13;103046.81;;;8.60;59.21
59873;BME280;50750;51.636;4.948;2023-01-29T05:19:40;103043.33;;;8.59;59.21
59873;BME280;50750;51.636;4.948;2023-01-29T05:22:08;103038.09;;;8.60;59.23
59873;BME280;50750;51.636;4.948;2023-01-29T05:24:37;103030.05;;;8.60;59.28
59873;BME280;50750;51.636;4.948;2023-01-29T05:27:03;103017.30;;;8.60;59.32
59873;BME280;50750;51.636;4.948;2023-01-29T05:29:47;103016.95;;;8.59;59.26
59873;BME280;50750;51.636;4.948;2023-01-29T05:32:14;103021.16;;;8.60;59.20
59873;BME280;50750;51.636;4.948;2023-01-29T05:34:40;103020.09;;;8.59;59.11
59873;BME280;50750;51.636;4.948;2023-01-29T05:37:06;103020.61;;;8.59;59.30
59873;BME280;50750;51.636;4.948;2023-01-29T05:39:32;103024.27;;;8.59;59.27
59873;BME280;50750;51.636;4.948;2023-01-29T05:41:58;103024.80;;;8.59;59.25
59873;BME280;50750;51.636;4.948;2023-01-29T05:44:24;103028.10;;;8.57;59.25
59873;BME280;50750;51.636;4.948;2023-01-29T05:46:50;103037.90;;;8.58;59.33
59873;BME280;50750;51.636;4.948;2023-01-29T05:49:16;103044.35;;;8.58;59.36
59873;BME280;50750;51.636;4.948;2023-01-29T05:51:43;103048.36;;;8.57;59.28
59873;BME280;50750;51.636;4.948;2023-01-29T05:54:12;103048.02;;;8.57;59.38
59873;BME280;50750;51.636;4.948;2023-01-29T05:56:39;103041.55;;;8.57;59.35
59873;BME280;50750;51.636;4.948;2023-01-29T05:59:05;103042.06;;;8.57;59.41
59873;BME280;50750;51.636;4.948;2023-01-29T06:01:32;103043.27;;;8.56;59.45
59873;BME280;50750;51.636;4.948;2023-01-29T06:03:58;103040.30;;;8.56;59.24
59873;BME280;50750;51.636;4.948;2023-01-29T06:06:23;103043.27;;;8.56;59.46
59873;BME280;50750;51.636;4.948;2023-01-29T06:08:49;103047.98;;;8.56;59.39
59873;BME280;50750;51.636;4.948;2023-01-29T06:11:16;103046.25;;;8.56;59.33
59873;BME280;50750;51.636;4.948;2023-01-29T06:13:44;103045.55;;;8.56;59.45
59873;BME280;50750;51.636;4.948;2023-01-29T06:16:11;103048.17;;;8.56;59.49
59873;BME280;50750;51.636;4.948;2023-01-29T06:18:39;103052.36;;;8.56;59.47
59873;BME280;50750;51.636;4.948;2023-01-29T06:21:07;103053.40;;;8.56;59.58
59873;BME280;50750;51.636;4.948;2023-01-29T06:23:33;103053.05;;;8.56;59.57
59873;BME280;50750;51.636;4.948;2023-01-29T06:26:00;103044.84;;;8.55;59.48
59873;BME280;50750;51.636;4.948;2023-01-29T06:28:27;103036.98;;;8.56;59.50
59873;BME280;50750;51.636;4.948;2023-01-29T06:30:56;103035.77;;;8.55;59.49
59873;BME280;50750;51.636;4.948;2023-01-29T06:33:23;103032.27;;;8.55;59.47
59873;BME280;50750;51.636;4.948;2023-01-29T06:35:49;103021.61;;;8.55;59.52
59873;BME280;50750;51.636;4.948;2023-01-29T06:38:14;103015.50;;;8.55;59.41
59873;BME280;50750;51.636;4.948;2023-01-29T06:40:40;103019.88;;;8.55;59.48
59873;BME280;50750;51.636;4.948;2023-01-29T06:43:06;103013.58;;;8.55;59.50
59873;BME280;50750;51.636;4.948;2023-01-29T06:45:32;103008.87;;;8.55;59.65
59873;BME280;50750;51.636;4.948;2023-01-29T06:47:58;103012.87;;;8.55;59.52
59873;BME280;50750;51.636;4.948;2023-01-29T06:50:23;103017.23;;;8.54;59.70
59873;BME280;50750;51.636;4.948;2023-01-29T06:52:49;103018.46;;;8.54;59.55
59873;BME280;50750;51.636;4.948;2023-01-29T06:55:15;103025.08;;;8.54;59.60
59873;BME280;50750;51.636;4.948;2023-01-29T06:57:41;103028.94;;;8.54;59.63
59873;BME280;50750;51.636;4.948;2023-01-29T07:00:07;103022.11;;;8.54;59.45
59873;BME280;50750;51.636;4.948;2023-01-29T07:02:34;103020.20;;;8.54;59.46
59873;BME280;50750;51.636;4.948;2023-01-29T07:05:00;103020.02;;;8.54;59.40
59873;BME280;50750;51.636;4.948;2023-01-29T07:07:26;103016.17;;;8.53;59.48
59873;BME280;50750;51.636;4.948;2023-01-29T07:09:52;103018.98;;;8.54;59.56
59873;BME280;50750;51.636;4.948;2023-01-29T07:12:17;103019.31;;;8.53;59.60
59873;BME280;50750;51.636;4.948;2023-01-29T07:14:43;103016.70;;;8.53;59.50
59873;BME280;50750;51.636;4.948;2023-01-29T07:17:09;103013.55;;;8.53;59.53
59873;BME280;50750;51.636;4.948;2023-01-29T07:19:35;103015.13;;;8.53;59.61
59873;BME280;50750;51.636;4.948;2023-01-29T07:22:01;103017.05;;;8.52;59.64
59873;BME280;50750;51.636;4.948;2023-01-29T07:24:30;103015.48;;;8.53;59.44
59873;BME280;50750;51.636;4.948;2023-01-29T07:26:56;103016.52;;;8.52;59.49
59873;BME280;50750;51.636;4.948;2023-01-29T07:29:22;103026.65;;;8.52;59.56
59873;BME280;50750;51.636;4.948;2023-01-29T07:31:47;103023.67;;;8.52;59.60
59873;BME280;50750;51.636;4.948;2023-01-29T07:34:13;103016.86;;;8.52;59.54
59873;BME280;50750;51.636;4.948;2023-01-29T07:36:39;103013.70;;;8.52;59.56
59873;BME280;50750;51.636;4.948;2023-01-29T07:39:05;103014.06;;;8.52;59.48
59873;BME280;50750;51.636;4.948;2023-01-29T07:41:31;103020.36;;;8.52;59.54
59873;BME280;50750;51.636;4.948;2023-01-29T07:43:56;103021.75;;;8.52;59.63
59873;BME280;50750;51.636;4.948;2023-01-29T07:46:22;103013.53;;;8.52;59.52
59873;BME280;50750;51.636;4.948;2023-01-29T07:48:48;103012.65;;;8.51;59.59
59873;BME280;50750;51.636;4.948;2023-01-29T07:51:14;103004.45;;;8.52;59.52
59873;BME280;50750;51.636;4.948;2023-01-29T07:53:41;103000.61;;;8.51;59.44
59873;BME280;50750;51.636;4.948;2023-01-29T07:56:08;103006.52;;;8.51;59.48
59873;BME280;50750;51.636;4.948;2023-01-29T07:58:34;103009.86;;;8.51;59.45
59873;BME280;50750;51.636;4.948;2023-01-29T08:01:05;103017.88;;;8.51;59.52
59873;BME280;50750;51.636;4.948;2023-01-29T08:03:32;103014.56;;;8.51;59.35
59873;BME280;50750;51.636;4.948;2023-01-29T08:05:58;103011.77;;;8.51;59.36
59873;BME280;50750;51.636;4.948;2023-01-29T08:08:23;103011.42;;;8.51;59.40
59873;BME280;50750;51.636;4.948;2023-01-29T08:10:50;103002.16;;;8.50;59.36
59873;BME280;50750;51.636;4.948;2023-01-29T08:13:16;102997.45;;;8.50;59.38
59873;BME280;50750;51.636;4.948;2023-01-29T08:15:43;102997.45;;;8.50;59.28
59873;BME280;50750;51.636;4.948;2023-01-29T08:18:10;102994.64;;;8.49;59.30
59873;BME280;50750;51.636;4.948;2023-01-29T08:20:36;102995.35;;;8.49;59.27
59873;BME280;50750;51.636;4.948;2023-01-29T08:23:09;102998.99;;;8.49;59.39
59873;BME280;50750;51.636;4.948;2023-01-29T08:25:36;102996.73;;;8.49;59.32
59873;BME280;50750;51.636;4.948;2023-01-29T08:28:03;102993.23;;;8.48;59.33
59873;BME280;50750;51.636;4.948;2023-01-29T08:30:30;102980.31;;;8.48;59.21
59873;BME280;50750;51.636;4.948;2023-01-29T08:32:57;102973.49;;;8.48;59.36
59873;BME280;50750;51.636;4.948;2023-01-29T08:35:24;102972.27;;;8.48;59.37
59873;BME280;50750;51.636;4.948;2023-01-29T08:37:58;102976.81;;;8.47;59.42
59873;BME280;50750;51.636;4.948;2023-01-29T08:40:26;102975.59;;;8.47;59.40
59873;BME280;50750;51.636;4.948;2023-01-29T08:42:52;102972.80;;;8.47;59.31
59873;BME280;50750;51.636;4.948;2023-01-29T08:45:17;102968.79;;;8.47;59.48
59873;BME280;50750;51.636;4.948;2023-01-29T08:47:45;102968.77;;;8.47;59.39
59873;BME280;50750;51.636;4.948;2023-01-29T08:50:12;102968.95;;;8.47;59.46
59873;BME280;50750;51.636;4.948;2023-01-29T08:52:38;102972.27;;;8.47;59.51
59873;BME280;50750;51.636;4.948;2023-01-29T08:55:04;102972.95;;;8.46;59.47
59873;BME280;50750;51.636;4.948;2023-01-29T08:57:30;102964.75;;;8.47;59.29
59873;BME280;50750;51.636;4.948;2023-01-29T08:59:56;102965.27;;;8.46;59.42
59873;BME280;50750;51.636;4.948;2023-01-29T09:02:22;102967.91;;;8.47;59.41
59873;BME280;50750;51.636;4.948;2023-01-29T09:04:47;102972.63;;;8.47;59.60
59873;BME280;50750;51.636;4.948;2023-01-29T09:07:14;102974.54;;;8.47;59.34
59873;BME280;50750;51.636;4.948;2023-01-29T09:09:40;102974.36;;;8.47;59.40
59873;BME280;50750;51.636;4.948;2023-01-29T09:12:06;102973.84;;;8.47;59.55
59873;BME280;50750;51.636;4.948;2023-01-29T09:14:32;102971.73;;;8.47;59.51
59873;BME280;50750;51.636;4.948;2023-01-29T09:16:58;102968.79;;;8.47;59.44
59873;BME280;50750;51.636;4.948;2023-01-29T09:19:23;102965.98;;;8.47;59.44
59873;BME280;50750;51.636;4.948;2023-01-29T09:21:49;102965.27;;;8.47;59.35
59873;BME280;50750;51.636;4.948;2023-01-29T09:24:15;102965.82;;;8.47;59.43
59873;BME280;50750;51.636;4.948;2023-01-29T09:26:41;102963.00;;;8.46;59.31
59873;BME280;50750;51.636;4.948;2023-01-29T09:29:09;102964.91;;;8.46;59.35
59873;BME280;50750;51.636;4.948;2023-01-29T09:31:35;102965.60;;;8.45;59.42
59873;BME280;50750;51.636;4.948;2023-01-29T09:34:01;102959.67;;;8.45;59.21
59873;BME280;50750;51.636;4.948;2023-01-29T09:36:27;102962.47;;;8.45;59.19
59873;BME280;50750;51.636;4.948;2023-01-29T09:38:52;102957.05;;;8.45;59.32
59873;BME280;50750;51.636;4.948;2023-01-29T09:44:01;102950.77;;;8.44;59.32
59873;BME280;50750;51.636;4.948;2023-01-29T09:46:42;102956.70;;;8.44;59.42
59873;BME280;50750;51.636;4.948;2023-01-29T09:49:40;102962.45;;;8.43;59.38
59873;BME280;50750;51.636;4.948;2023-01-29T09:52:34;102962.63;;;8.44;59.27
59873;BME280;50750;51.636;4.948;2023-01-29T09:55:24;102959.13;;;8.43;59.29
59873;BME280;50750;51.636;4.948;2023-01-29T09:57:55;102956.15;;;8.43;59.33
59873;BME280;50750;51.636;4.948;2023-01-29T10:14:09;102953.35;;;8.41;59.46
59873;BME280;50750;51.636;4.948;2023-01-29T10:21:56;102948.42;;;8.39;58.55
59873;BME280;50750;51.636;4.948;2023-01-29T10:27:02;102942.26;;;8.37;58.98
59873;BME280;50750;51.636;4.948;2023-01-29T10:29:28;102939.64;;;8.37;58.83
59873;BME280;50750;51.636;4.948;2023-01-29T10:31:59;102934.92;;;8.37;59.07
59873;BME280;50750;51.636;4.948;2023-01-29T10:34:35;102933.88;;;8.37;58.99
59873;BME280;50750;51.636;4.948;2023-01-29T10:37:21;102933.52;;;8.37;59.00
59873;BME280;50750;51.636;4.948;2023-01-29T10:39:49;102937.20;;;8.37;59.02
59873;BME280;50750;51.636;4.948;2023-01-29T10:56:11;102914.67;;;8.37;59.22
59873;BME280;50750;51.636;4.948;2023-01-29T10:58:49;102905.25;;;8.37;59.12
59873;BME280;50750;51.636;4.948;2023-01-29T11:01:16;102896.87;;;8.37;59.22
59873;BME280;50750;51.636;4.948;2023-01-29T11:03:42;102890.23;;;8.36;59.20
59873;BME280;50750;51.636;4.948;2023-01-29T11:06:18;102878.19;;;8.36;59.12
59873;BME280;50750;51.636;4.948;2023-01-29T11:11:49;102880.98;;;8.36;59.20
59873;BME280;50750;51.636;4.948;2023-01-29T11:17:17;102873.65;;;8.36;59.29
59873;BME280;50750;51.636;4.948;2023-01-29T11:19:46;102865.61;;;8.36;59.23
59873;BME280;50750;51.636;4.948;2023-01-29T11:22:13;102863.87;;;8.37;59.50
59873;BME280;50750;51.636;4.948;2023-01-29T11:24:40;102854.10;;;8.37;59.36
59873;BME280;50750;51.636;4.948;2023-01-29T11:27:22;102847.29;;;8.37;59.41
59873;BME280;50750;51.636;4.948;2023-01-29T11:29:52;102839.61;;;8.37;59.36
59873;BME280;50750;51.636;4.948;2023-01-29T11:35:00;102836.15;;;8.38;59.39
59873;BME280;50750;51.636;4.948;2023-01-29T11:37:41;102829.20;;;8.39;59.43
59873;BME280;50750;51.636;4.948;2023-01-29T11:42:49;102827.63;;;8.40;59.46
59873;BME280;50750;51.636;4.948;2023-01-29T11:45:29;102824.13;;;8.39;59.49
59873;BME280;50750;51.636;4.948;2023-01-29T11:47:58;102825.73;;;8.40;59.43
59873;BME280;50750;51.636;4.948;2023-01-29T11:50:28;102820.13;;;8.40;59.31
59873;BME280;50750;51.636;4.948;2023-01-29T11:52:55;102817.16;;;8.40;59.43
59873;BME280;50750;51.636;4.948;2023-01-29T11:55:26;102815.77;;;8.41;59.56
59873;BME280;50750;51.636;4.948;2023-01-29T11:57:58;102817.70;;;8.41;59.51
59873;BME280;50750;51.636;4.948;2023-01-29T12:00:27;102810.89;;;8.42;59.57
59873;BME280;50750;51.636;4.948;2023-01-29T12:05:27;102808.80;;;8.43;59.67
59873;BME280;50750;51.636;4.948;2023-01-29T12:07:55;102804.95;;;8.43;59.60
59873;BME280;50750;51.636;4.948;2023-01-29T12:10:37;102806.04;;;8.44;59.57
59873;BME280;50750;51.636;4.948;2023-01-29T12:15:36;102801.15;;;8.45;59.66
59873;BME280;50750;51.636;4.948;2023-01-29T12:18:21;102794.67;;;8.46;59.58
59873;BME280;50750;51.636;4.948;2023-01-29T12:20:53;102786.13;;;8.46;59.48
59873;BME280;50750;51.636;4.948;2023-01-29T12:26:12;102776.20;;;8.47;59.60
59873;BME280;50750;51.636;4.948;2023-01-29T12:31:35;102762.41;;;8.47;59.62
59873;BME280;50750;51.636;4.948;2023-01-29T12:34:09;102753.85;;;8.47;59.34
59873;BME280;50750;51.636;4.948;2023-01-29T12:36:48;102747.38;;;8.46;59.45
59873;BME280;50750;51.636;4.948;2023-01-29T12:39:18;102742.67;;;8.47;59.49
59873;BME280;50750;51.636;4.948;2023-01-29T12:42:01;102741.80;;;8.46;59.67
59873;BME280;50750;51.636;4.948;2023-01-29T12:44:34;102737.41;;;8.46;59.72
59873;BME280;50750;51.636;4.948;2023-01-29T12:47:13;102736.02;;;8.45;59.59
59873;BME280;50750;51.636;4.948;2023-01-29T12:49:41;102725.73;;;8.46;59.54
59873;BME280;50750;51.636;4.948;2023-01-29T12:52:17;102725.73;;;8.46;59.62
59873;BME280;50750;51.636;4.948;2023-01-29T12:54:55;102717.52;;;8.46;59.77
59873;BME280;50750;51.636;4.948;2023-01-29T12:57:41;102708.80;;;8.46;59.72
59873;BME280;50750;51.636;4.948;2023-01-29T13:00:21;102706.17;;;8.46;59.74
59873;BME280;50750;51.636;4.948;2023-01-29T13:05:18;102693.44;;;8.47;59.69
59873;BME280;50750;51.636;4.948;2023-01-29T13:07:50;102690.65;;;8.47;59.82
59873;BME280;50750;51.636;4.948;2023-01-29T13:10:25;102685.24;;;8.47;59.77
59873;BME280;50750;51.636;4.948;2023-01-29T13:12:59;102682.45;;;8.47;59.75
59873;BME280;50750;51.636;4.948;2023-01-29T13:15:34;102674.94;;;8.48;59.74
59873;BME280;50750;51.636;4.948;2023-01-29T13:18:32;102671.63;;;8.48;59.92
59873;BME280;50750;51.636;4.948;2023-01-29T13:21:03;102665.52;;;8.48;59.55
59873;BME280;50750;51.636;4.948;2023-01-29T13:23:33;102659.92;;;8.48;59.51
59873;BME280;50750;51.636;4.948;2023-01-29T13:26:01;102657.65;;;8.48;59.65
59873;BME280;50750;51.636;4.948;2023-01-29T13:28:28;102651.73;;;8.48;59.80
59873;BME280;50750;51.636;4.948;2023-01-29T13:33:40;102628.67;;;8.48;59.63
59873;BME280;50750;51.636;4.948;2023-01-29T13:36:23;102617.86;;;8.47;59.55
59873;BME280;50750;51.636;4.948;2023-01-29T13:38:58;102618.38;;;8.47;59.60
59873;BME280;50750;51.636;4.948;2023-01-29T13:41:51;102613.83;;;8.47;59.74
59873;BME280;50750;51.636;4.948;2023-01-29T13:44:34;102613.30;;;8.47;59.73
59873;BME280;50750;51.636;4.948;2023-01-29T13:47:07;102611.90;;;8.47;59.57
59873;BME280;50750;51.636;4.948;2023-01-29T13:49:46;102609.48;;;8.47;59.58
59873;BME280;50750;51.636;4.948;2023-01-29T13:54:56;102606.15;;;8.47;59.60
59873;BME280;50750;51.636;4.948;2023-01-29T14:05:43;102596.55;;;8.48;59.89
59873;BME280;50750;51.636;4.948;2023-01-29T14:10:43;102596.02;;;8.47;60.01
59873;BME280;50750;51.636;4.948;2023-01-29T14:16:32;102595.16;;;8.48;59.89
59873;BME280;50750;51.636;4.948;2023-01-29T14:18:33;102590.97;;;8.48;59.91
59873;BME280;50750;51.636;4.948;2023-01-29T14:26:03;102583.63;;;8.48;59.92
59873;BME280;50750;51.636;4.948;2023-01-29T14:28:32;102584.51;;;8.48;60.08
59873;BME280;50750;51.636;4.948;2023-01-29T14:30:58;102580.33;;;8.48;60.02
59873;BME280;50750;51.636;4.948;2023-01-29T14:33:33;102582.23;;;8.48;60.05
59873;BME280;50750;51.636;4.948;2023-01-29T14:36:20;102588.70;;;8.48;60.07
59873;BME280;50750;51.636;4.948;2023-01-29T14:38:49;102585.03;;;8.48;60.14
59873;BME280;50750;51.636;4.948;2023-01-29T14:41:24;102585.03;;;8.48;59.98
59873;BME280;50750;51.636;4.948;2023-01-29T14:46:56;102574.91;;;8.47;60.03
59873;BME280;50750;51.636;4.948;2023-01-29T14:49:54;102566.87;;;8.47;59.94
59873;BME280;50750;51.636;4.948;2023-01-29T14:52:25;102566.01;;;8.48;59.95
59873;BME280;50750;51.636;4.948;2023-01-29T14:54:57;102567.73;;;8.48;60.02
59873;BME280;50750;51.636;4.948;2023-01-29T14:57:24;102566.70;;;8.48;60.02
59873;BME280;50750;51.636;4.948;2023-01-29T14:59:59;102559.02;;;8.48;59.96
59873;BME280;50750;51.636;4.948;2023-01-29T15:02:36;102556.92;;;8.48;60.02
59873;BME280;50750;51.636;4.948;2023-01-29T15:05:07;102556.24;;;8.49;60.05
59873;BME280;50750;51.636;4.948;2023-01-29T15:07:40;102553.10;;;8.49;60.11
59873;BME280;50750;51.636;4.948;2023-01-29T15:10:18;102550.14;;;8.50;60.05
59873;BME280;50750;51.636;4.948;2023-01-29T15:12:55;102548.55;;;8.50;59.99
59873;BME280;50750;51.636;4.948;2023-01-29T15:15:39;102543.14;;;8.50;60.02
59873;BME280;50750;51.636;4.948;2023-01-29T15:20:41;102546.45;;;8.50;60.07
59873;BME280;50750;51.636;4.948;2023-01-29T15:23:23;102548.04;;;8.50;60.11
59873;BME280;50750;51.636;4.948;2023-01-29T15:25:52;102541.58;;;8.50;60.07
59873;BME280;50750;51.636;4.948;2023-01-29T15:28:19;102536.16;;;8.49;60.06
59873;BME280;50750;51.636;4.948;2023-01-29T15:30:53;102532.67;;;8.49;60.08
59873;BME280;50750;51.636;4.948;2023-01-29T15:33:19;102528.46;;;8.49;60.03
59873;BME280;50750;51.636;4.948;2023-01-29T15:35:46;102525.33;;;8.48;59.89
59873;BME280;50750;51.636;4.948;2023-01-29T15:38:18;102525.84;;;8.48;60.01